CheckWX is a tool to help pilots better visualize weather data.  It is not intended as a substitute for an official pre-flight weather briefing.

03:11:30 UTC

KBAF METAR
Westfield-Barnes Regional Airport
Westfield/Springfield, Massachusetts, USA
Current

19 mins ago

KBAF 230253Z AUTO 17006KT 10SM CLR 20/16 A2998 RMK AO2 SLP150 T02000161 58007
Observed
Sep-23 @ 02:53 UTC
Wind
  • 170° at 6 KTS
Visibility
10 SM
Flight Rules
VFR
Cloud Levels
  • Clear skies
Temperature
20°C / 68°F
Dewpoint
16°C / 61°F
Humidity
78%
Altimeter
29.98" Hg
Pressure
1015.22 hPa
Previous

1 hour ago

KBAF 230153Z 18006KT 10SM CLR 22/16 A2999 RMK AO2 SLP155 T02170161
Observed
Sep-23 @ 01:53 UTC
Wind
  • 180° at 6 KTS
Visibility
10 SM
Flight Rules
VFR
Cloud Levels
  • Clear skies
Temperature
22°C / 72°F
Dewpoint
16°C / 61°F
Humidity
69%
Altimeter
29.99" Hg
Pressure
1015.62 hPa
Previous

2 hours ago

KBAF 230053Z 18008KT 10SM CLR 23/16 A3000 RMK AO2 SLP159 T02280161
Observed
Sep-23 @ 00:53 UTC
Wind
  • 180° at 8 KTS
Visibility
10 SM
Flight Rules
VFR
Cloud Levels
  • Clear skies
Temperature
23°C / 73°F
Dewpoint
16°C / 61°F
Humidity
65%
Altimeter
30" Hg
Pressure
1015.92 hPa